LSZS 200020Z AUTO VRB01KT 9999 NCD 08/08 Q1032 LSZS 192350Z AUTO VRB02KT 8000 NSC 06/06 Q1032 LSZS 192320Z AUTO 20004KT 9999 NSC 07/06 Q1032 LSZS 192250Z AUTO 12001KT 9999 NCD 09/08 Q1032 LSZS 192220Z AUTO 19002KT 9999 NSC 09/08 Q1032 LSZS 192150Z AUTO 17004KT 9999 FEW080 BKN090 12/09 Q1032 LSZS 192120Z AUTO 16006KT 9999 FEW060 SCT090 12/09 Q1032 LSZS 192050Z AUTO 17009KT 140V200 9999 SCT060 12/09 Q1032 LSZS 192020Z AUTO 17006KT 120V260 9999 SCT065 12/09 Q1032 LSZS 191950Z AUTO 21009KT 9999 FEW065 12/09 Q1031 LSZS 191920Z AUTO 21013KT 9999 //////TCU 13/09 Q1031 LSZS 191850Z AUTO 21013KT 9999 //////TCU 13/10 Q1031 LSZS 191820Z AUTO 19011KT 9999 SCT060 14/10 Q1030 LSZS 191750Z AUTO 21011KT 180V240 9999 SCT060 14/10 Q1030 LSZS 191720Z AUTO 23013KT 9999 NCD 15/10 Q1029 LSZS 191650Z 23014KT 9999 SCT065TCU 16/10 Q1029 RMK W TL170 LSZS 191620Z 22013KT 9999 SCT065TCU 17/10 Q1029 RMK V TL170 LSZS 191550Z 23014KT 9999 SCT065TCU 18/10 Q1029 RMK U TL170 LSZS 191520Z 22017KT 9999 SCT065TCU 18/10 Q1029 RMK T TL170 LSZS 191450Z 22015KT 9999 SCT065TCU 18/10 Q1029 RMK S TL170 LSZS 191420Z 22018KT 9999 BKN065TCU 18/09 Q1029 RMK R TL170 LSZS 191350Z 22018KT 9999 BKN065TCU 18/09 Q1029 RMK Q TL170 LSZS 191320Z 22017KT 9999 BKN065TCU 19/09 Q1029 RMK P TL170 LSZS 191250Z 22017KT 9999 SCT065TCU 19/10 Q1029 RMK O TL170 LSZS 191220Z 22014KT 9999 SCT065TCU 19/10 Q1029 RMK N TL170 LSZS 191150Z 21009KT 9999 SCT065 19/11 Q1029 RMK M TL170 LSZS 191120Z 22007KT 200V270 9999 FEW052 SCT065 19/09 Q1029 RMK L TL170 LSZS 191050Z 21006KT 180V250 9999 FEW052 SCT065 18/08 Q1030 RMK K TL170 LSZS 191020Z 22008KT 9999 FEW052 SCT065 18/11 Q1030 RMK J TL170 LSZS 190950Z 21003KT 160V280 9999 FEW048 SCT056 17/08 Q1030 RMK I TL170 LSZS 190920Z 24004KT 190V300 9999 FEW020 SCT056 16/10 Q1030 RMK H TL170 LSZS 190850Z 21008KT 9999 FEW020 SCT056 15/10 Q1031 RMK G TL170 LSZS 190820Z 20010KT 9999 FEW020 SCT056 14/10 Q1031 RMK F TL170 LSZS 190750Z 19013KT 9999 FEW020 SCT052 12/10 Q1031 RMK E TL170 LSZS 190720Z 18008KT 9999 FEW020 SCT058 12/10 Q1031 RMK D TL170 LSZS 190650Z 15004KT 120V180 9999 FEW020 SCT058 12/10 Q1031 RMK C TL170 LSZS 190620Z 17004KT 100V240 9999 FEW020 SCT030 11/09 Q1031 RMK B TL170 LSZS 190550Z 15002KT 9999 FEW020 SCT030 11/10 Q1030 RMK A TL170 LSZS 190520Z AUTO 18006KT 9999 BKN014 10/10 Q1030 LSZS 190450Z AUTO 19004KT 160V230 9999 BKN009 OVC011 OVC013 09/08 Q1030 LSZS 190420Z AUTO 18004KT 9999 BKN009 09/09 Q1030 LSZS 190350Z AUTO 19004KT 9999 FEW013 OVC024 08/08 Q1030 LSZS 190320Z AUTO 18005KT 9999 SCT010 BKN012 OVC026 08/08 Q1030 LSZS 190250Z AUTO 18003KT 150V210 9999 FEW012 SCT014 BKN025 09/09 Q1030 LSZS 190220Z AUTO 18003KT 150V220 9999 BKN013 BKN025 08/07 Q1030 LSZS 190150Z AUTO 21003KT 9999 BKN015 BKN025 08/08 Q1030 LSZS 190120Z AUTO VRB03KT 9999 FEW015 SCT027 09/08 Q1030 LSZS 190050Z AUTO 17004KT 140V220 9999 SCT017 BKN025 BKN028 08/07 Q1029 LSZS 190020Z AUTO VRB03KT 9999 FEW017 BKN027 09/08 Q1029 LSZS 182350Z AUTO 17004KT 120V200 9999 FEW019 BKN027 10/09 Q1029 LSZS 182320Z AUTO 18003KT 120V200 9999 FEW015 OVC022 10/09 Q1029 LSZS 182250Z AUTO 19005KT 9999 FEW024 09/08 Q1029 LSZS 182220Z AUTO 18005KT 9999 SCT027 09/08 Q1029 LSZS 182150Z AUTO 17004KT 9999 SCT025 BKN028 10/08 Q1029 LSZS 182120Z AUTO 18005KT 140V210 9999 FEW017 //////TCU 11/10 Q1029 LSZS 182050Z AUTO 19005KT 9999 FEW026 SCT030 SCT///CB 11/10 Q1029 LSZS 182020Z AUTO 19006KT 150V240 9999 FEW021 12/10 Q1028 LSZS 181950Z AUTO 20006KT 140V240 9999 NCD 12/10 Q1028 LSZS 181920Z AUTO 23012KT 9999 NCD 13/11 Q1028 LSZS 181850Z AUTO 21011KT 180V240 9999 NCD 13/11 Q1027 LSZS 181820Z AUTO 21011KT 9999 NCD 13/11 Q1027 LSZS 181750Z AUTO 22014KT 180V240 9999 //////TCU 14/11 Q1026 LSZS 181720Z AUTO 23016KT 9999 NCD 14/10 Q1026 LSZS 181650Z 23016KT 9999 FEW040TCU 17/10 Q1026 RMK W TL170 LSZS 181620Z 23015KT 9999 FEW075TCU 16/09 Q1026 RMK V TL170 LSZS 181550Z 23012KT 9999 SCT075TCU 17/08 Q1026 RMK U TL170 LSZS 181520Z 23016KT 9999 SCT075TCU 19/08 Q1025 RMK T TL170 LSZS 181450Z 23013KT 9999 BKN075TCU 20/08 Q1025 RMK S TL170 LSZS 181420Z 22012KT 9999 BKN075 18/06 Q1026 RMK R TL170 LSZS 181350Z VRB06KT 9999 BKN075 19/05 Q1026 RMK Q TL170 LSZS 181320Z 27003KT 180V330 9999 SCT075 20/04 Q1026 RMK P TL170 LSZS 181250Z 34006KT 290V030 9999 SCT075 19/05 Q1026 RMK O TL170

METAR Messwerte "SAMEDAN" LSZS

Zurück zur Übersicht

Ortsname
Ländercode / m ü. NN
Zeit Temperatur Taupunkt Rel.
Luftfeuchte
Luftdruck:
Altimeter
NN
Station
Wind in Beaufort
(Knoten)
Sichtweite
(Meter)
Wolken
(Meter über Grund)
Wettererscheinung
SAMEDAN
CH 1708
Fr 20.05. 02:2088100 %1032
1038
840
Uml 1 (1)>= 10000  
SAMEDAN
CH 1708
Fr 20.05. 01:5066100 %1032
1040
840
Uml 1 (2)8000Nicht signifikant 
SAMEDAN
CH 1708
Fr 20.05. 01:207693 %1032
1039
840
SSW 2 (4)>= 10000Nicht signifikant 
SAMEDAN
CH 1708
Fr 20.05. 00:509893 %1032
1037
840
OSO 1 (1)>= 10000  
SAMEDAN
CH 1708
Fr 20.05. 00:209893 %1032
1037
840
S 1 (2)>= 10000Nicht signifikant 
SAMEDAN
CH 1708
Do 19.05. 23:5012982 %1032
1035
840
S 2 (4)>= 10000Stark bewölkt (2700)
Leicht bewölkt (2400)
 
SAMEDAN
CH 1708
Do 19.05. 23:2012982 %1032
1035
840
SSO 2 (6)>= 10000Wolkig (2700)
Leicht bewölkt (1800)
 
SAMEDAN
CH 1708
Do 19.05. 22:5012982 %1032
1035
840
S 3 (9)
SO - SSW
>= 10000Wolkig (1800) 
SAMEDAN
CH 1708
Do 19.05. 22:2012982 %1032
1035
840
S 2 (6)
OSO - W
>= 10000Wolkig (2000) 
SAMEDAN
CH 1708
Do 19.05. 21:5012982 %1031
1034
839
SSW 3 (9)>= 10000Leicht bewölkt (2000) 
SAMEDAN
CH 1708
Do 19.05. 21:2013977 %1031
1033
839
SSW 4 (13)>= 10000  
SAMEDAN
CH 1708
Do 19.05. 20:50131082 %1031
1033
839
SSW 4 (13)>= 10000  
SAMEDAN
CH 1708
Do 19.05. 20:20141077 %1030
1031
838
S 4 (11)>= 10000Wolkig (1800) 
SAMEDAN
CH 1708
Do 19.05. 19:50141077 %1030
1031
838
SSW 4 (11)
S - WSW
>= 10000Wolkig (1800) 
SAMEDAN
CH 1708
Do 19.05. 19:20151072 %1029
1029
838
SW 4 (13)>= 10000  
SAMEDAN
CH 1708
Do 19.05. 18:50161068 %1029
1029
838
SW 4 (14)>= 10000Wolkig (2000) 
SAMEDAN
CH 1708
Do 19.05. 18:20171063 %1029
1028
838
SW 4 (13)>= 10000Wolkig (2000) 
SAMEDAN
CH 1708
Do 19.05. 17:50181059 %1029
1027
838
SW 4 (14)>= 10000Wolkig (2000) 
SAMEDAN
CH 1708
Do 19.05. 17:20181059 %1029
1027
838
SW 5 (17)>= 10000Wolkig (2000) 
SAMEDAN
CH 1708
Do 19.05. 16:50181059 %1029
1027
838
SW 4 (15)>= 10000Wolkig (2000) 
SAMEDAN
CH 1708
Do 19.05. 16:2018956 %1029
1027
838
SW 5 (18)>= 10000Stark bewölkt (2000) 
SAMEDAN
CH 1708
Do 19.05. 15:5018956 %1029
1027
838
SW 5 (18)>= 10000Stark bewölkt (2000) 
SAMEDAN
CH 1708
Do 19.05. 15:2019952 %1029
1026
838
SW 5 (17)>= 10000Stark bewölkt (2000) 
SAMEDAN
CH 1708
Do 19.05. 14:50191056 %1029
1026
838
SW 5 (17)>= 10000Wolkig (2000) 
SAMEDAN
CH 1708
Do 19.05. 14:20191056 %1029
1026
838
SW 4 (14)>= 10000Wolkig (2000) 
SAMEDAN
CH 1708
Do 19.05. 13:50191160 %1029
1026
838
SSW 3 (9)>= 10000Wolkig (2000) 
SAMEDAN
CH 1708
Do 19.05. 13:2019952 %1029
1026
838
SW 3 (7)
SSW - W
>= 10000Wolkig (2000)
Leicht bewölkt (1600)
 
SAMEDAN
CH 1708
Do 19.05. 12:5018852 %1030
1028
838
SSW 2 (6)
S - WSW
>= 10000Wolkig (2000)
Leicht bewölkt (1600)
 
SAMEDAN
CH 1708
Do 19.05. 12:20181164 %1030
1028
838
SW 3 (8)>= 10000Wolkig (2000)
Leicht bewölkt (1600)
 
SAMEDAN
CH 1708
Do 19.05. 11:5017855 %1030
1029
838
SSW 2 (3)
SSO - W
>= 10000Wolkig (1700)
Leicht bewölkt (1500)
 
SAMEDAN
CH 1708
Do 19.05. 11:20161068 %1030
1030
838
WSW 2 (4)
S - WNW
>= 10000Wolkig (1700)
Leicht bewölkt (610)
 
SAMEDAN
CH 1708
Do 19.05. 10:50151072 %1031
1031
839
SSW 3 (8)>= 10000Wolkig (1700)
Leicht bewölkt (610)
 
SAMEDAN
CH 1708
Do 19.05. 10:20141077 %1031
1032
839
SSW 3 (10)>= 10000Wolkig (1700)
Leicht bewölkt (610)
 
SAMEDAN
CH 1708
Do 19.05. 09:50121088 %1031
1034
839
S 4 (13)>= 10000Wolkig (1600)
Leicht bewölkt (610)
 
SAMEDAN
CH 1708
Do 19.05. 09:20121088 %1031
1034
839
S 3 (8)>= 10000Wolkig (1800)
Leicht bewölkt (610)
 
SAMEDAN
CH 1708
Do 19.05. 08:50121088 %1031
1034
839
SSO 2 (4)
OSO - S
>= 10000Wolkig (1800)
Leicht bewölkt (610)
 
SAMEDAN
CH 1708
Do 19.05. 08:2011987 %1031
1035
839
S 2 (4)
O - WSW
>= 10000Wolkig (910)
Leicht bewölkt (610)
 
SAMEDAN
CH 1708
Do 19.05. 07:50111094 %1030
1033
838
SSO 1 (2)>= 10000Wolkig (910)
Leicht bewölkt (610)
 
SAMEDAN
CH 1708
Do 19.05. 07:201010100 %1030
1034
838
S 2 (6)>= 10000Stark bewölkt (430) 
SAMEDAN
CH 1708
Do 19.05. 06:509893 %1030
1035
838
S 2 (4)
SSO - SW
>= 10000Bedeckt (400)
Bedeckt (340)
Stark bewölkt (270)
 
SAMEDAN
CH 1708
Do 19.05. 06:2099100 %1030
1035
838
S 2 (4)>= 10000Stark bewölkt (270) 
SAMEDAN
CH 1708
Do 19.05. 05:5088100 %1030
1036
838
S 2 (4)>= 10000Bedeckt (730)
Leicht bewölkt (400)
 
SAMEDAN
CH 1708
Do 19.05. 05:2088100 %1030
1036
838
S 2 (5)>= 10000Bedeckt (790)
Stark bewölkt (370)
Wolkig (300)
 
SAMEDAN
CH 1708
Do 19.05. 04:5099100 %1030
1035
838
S 2 (3)
SSO - SSW
>= 10000Stark bewölkt (760)
Wolkig (430)
Leicht bewölkt (370)
 
SAMEDAN
CH 1708
Do 19.05. 04:208793 %1030
1036
838
S 2 (3)
SSO - SW
>= 10000Stark bewölkt (760)
Stark bewölkt (400)
 
SAMEDAN
CH 1708
Do 19.05. 03:5088100 %1030
1036
838
SSW 2 (3)>= 10000Stark bewölkt (760)
Stark bewölkt (460)
 
SAMEDAN
CH 1708
Do 19.05. 03:209893 %1030
1035
838
Uml 2 (3)>= 10000Wolkig (820)
Leicht bewölkt (460)
 
SAMEDAN
CH 1708
Do 19.05. 02:508793 %1029
1035
838
S 2 (4)
SO - SW
>= 10000Stark bewölkt (850)
Stark bewölkt (760)
Wolkig (520)
 
SAMEDAN
CH 1708
Do 19.05. 02:209893 %1029
1034
838
Uml 2 (3)>= 10000Stark bewölkt (820)
Leicht bewölkt (520)
 
SAMEDAN
CH 1708
Do 19.05. 01:5010993 %1029
1033
838
S 2 (4)
OSO - SSW
>= 10000Stark bewölkt (820)
Leicht bewölkt (580)
 
SAMEDAN
CH 1708
Do 19.05. 01:2010993 %1029
1033
838
S 2 (3)
OSO - SSW
>= 10000Bedeckt (670)
Leicht bewölkt (460)
 
SAMEDAN
CH 1708
Do 19.05. 00:509893 %1029
1034
838
S 2 (5)>= 10000Leicht bewölkt (730) 
SAMEDAN
CH 1708
Do 19.05. 00:209893 %1029
1034
838
S 2 (5)>= 10000Wolkig (820) 
SAMEDAN
CH 1708
Mi 18.05. 23:5010887 %1029
1033
838
S 2 (4)>= 10000Stark bewölkt (850)
Wolkig (760)
 
SAMEDAN
CH 1708
Mi 18.05. 23:20111094 %1029
1032
838
S 2 (5)
SO - SSW
>= 10000Leicht bewölkt (520) 
SAMEDAN
CH 1708
Mi 18.05. 22:50111094 %1029
1032
838
S 2 (5)>= 10000Wolkig (910)
Leicht bewölkt (790)
 
SAMEDAN
CH 1708
Mi 18.05. 22:20121088 %1028
1031
837
S 2 (6)
SSO - WSW
>= 10000Leicht bewölkt (640) 
SAMEDAN
CH 1708
Mi 18.05. 21:50121088 %1028
1031
837
SSW 2 (6)
SO - WSW
>= 10000  
SAMEDAN
CH 1708
Mi 18.05. 21:20131188 %1028
1030
837
SW 4 (12)>= 10000  
SAMEDAN
CH 1708
Mi 18.05. 20:50131188 %1027
1029
836
SSW 4 (11)
S - WSW
>= 10000  
SAMEDAN
CH 1708
Mi 18.05. 20:20131188 %1027
1029
836
SSW 4 (11)>= 10000  
SAMEDAN
CH 1708
Mi 18.05. 19:50141182 %1026
1027
835
SW 4 (14)
S - WSW
>= 10000  
SAMEDAN
CH 1708
Mi 18.05. 19:20141077 %1026
1027
835
SW 5 (16)>= 10000  
SAMEDAN
CH 1708
Mi 18.05. 18:50171063 %1026
1025
835
SW 5 (16)>= 10000Leicht bewölkt (1200) 
SAMEDAN
CH 1708
Mi 18.05. 18:2016963 %1026
1026
835
SW 4 (15)>= 10000Leicht bewölkt (2300) 
SAMEDAN
CH 1708
Mi 18.05. 17:5017855 %1026
1025
835
SW 4 (12)>= 10000Wolkig (2300) 
SAMEDAN
CH 1708
Mi 18.05. 17:2019849 %1025
1022
834
SW 5 (16)>= 10000Wolkig (2300) 
SAMEDAN
CH 1708
Mi 18.05. 16:5020846 %1025
1022
834
SW 4 (13)>= 10000Stark bewölkt (2300) 
SAMEDAN
CH 1708
Mi 18.05. 16:2018645 %1026
1024
835
SW 4 (12)>= 10000Stark bewölkt (2300) 
SAMEDAN
CH 1708
Mi 18.05. 15:5019540 %1026
1023
835
Uml 2 (6)>= 10000Stark bewölkt (2300) 
SAMEDAN
CH 1708
Mi 18.05. 15:2020435 %1026
1023
835
W 2 (3)
S - NNW
>= 10000Wolkig (2300) 
SAMEDAN
CH 1708
Mi 18.05. 14:5019540 %1026
1023
835
NNW 2 (6)
WNW - NNO
>= 10000Wolkig (2300) 

Altimeter: Einstellung am Altimeter (Höhenmesser), die Höhe 0 muss auf diesen Luftdruckwert zeigen, damit das Gerät die Stationshöhe richtig anzeigt.

NN: Luftdruck reduziert auf "Normal Null", auf Meereshöhe, dieser von der Temperatur abhängige Wert wird bisweilen unkorrekt einfach als "Luftdruck" bezeichnet. Eigentlich nur eine fiktive Größe, die es erlaubt, Stationen auf unterschiedlichen Höhen miteinander zu vergleichen.

Station: Realer Luftdruck an der Station.